createdAt,value
2022-12-16T00:00:16.214Z,8.93
2022-12-16T00:02:44.354Z,12.50
2022-12-16T00:05:12.328Z,8.23
2022-12-16T00:07:40.357Z,7.97
2022-12-16T00:10:10.000Z,11.63
2022-12-16T00:12:38.211Z,11.35
2022-12-16T00:15:06.659Z,8.63
2022-12-16T00:17:34.571Z,9.07
2022-12-16T00:20:04.196Z,9.88
2022-12-16T00:22:32.295Z,9.80
2022-12-16T00:25:00.184Z,10.75
2022-12-16T00:27:28.092Z,8.60
2022-12-16T00:29:56.058Z,9.43
2022-12-16T00:32:24.028Z,9.55
2022-12-16T00:34:51.890Z,9.23
2022-12-16T00:37:20.036Z,9.65
2022-12-16T00:39:48.363Z,8.23
2022-12-16T00:42:16.309Z,7.63
2022-12-16T00:44:44.163Z,8.73
2022-12-16T00:47:12.161Z,7.35
2022-12-16T00:49:40.085Z,7.55
2022-12-16T00:52:08.173Z,7.10
2022-12-16T00:54:36.013Z,7.00
2022-12-16T00:57:04.042Z,5.82
2022-12-16T00:59:32.241Z,7.97
2022-12-16T01:02:00.380Z,11.13
2022-12-16T01:04:28.529Z,5.93
2022-12-16T01:06:56.423Z,5.47
2022-12-16T01:09:24.438Z,7.00
2022-12-16T01:11:52.339Z,5.65
2022-12-16T01:14:20.075Z,5.88
2022-12-16T01:16:47.968Z,5.40
2022-12-16T01:19:16.064Z,5.40
2022-12-16T01:21:44.204Z,5.63
2022-12-16T01:24:12.511Z,5.63
2022-12-16T01:26:40.815Z,6.45
2022-12-16T01:29:09.153Z,5.97
2022-12-16T01:31:37.775Z,7.93
2022-12-16T01:34:05.732Z,9.23
2022-12-16T01:36:33.614Z,7.28
2022-12-16T01:39:01.731Z,8.48
2022-12-16T01:41:29.754Z,7.97
2022-12-16T01:44:18.509Z,8.48
2022-12-16T01:46:51.309Z,13.20
2022-12-16T01:49:28.761Z,8.40
2022-12-16T01:52:02.135Z,9.80
2022-12-16T01:54:41.745Z,8.55
2022-12-16T01:57:14.013Z,8.85
2022-12-16T01:59:46.716Z,7.50
2022-12-16T02:02:15.455Z,9.50
2022-12-16T02:05:03.514Z,9.05
2022-12-16T02:07:31.413Z,9.18
2022-12-16T02:10:00.217Z,7.35
2022-12-16T02:12:44.912Z,7.15
2022-12-16T02:15:39.679Z,6.70
2022-12-16T02:18:19.616Z,7.22
2022-12-16T02:20:50.348Z,7.00
2022-12-16T02:23:43.983Z,7.97
2022-12-16T02:29:24.431Z,7.40
2022-12-16T02:32:01.320Z,8.93
2022-12-16T02:34:37.834Z,7.82
2022-12-16T02:37:17.503Z,9.25
2022-12-16T02:40:03.521Z,10.77
2022-12-16T02:42:40.324Z,8.25
2022-12-16T02:45:20.435Z,8.75
2022-12-16T02:47:48.275Z,7.90
2022-12-16T02:50:21.866Z,9.93
2022-12-16T02:52:50.984Z,8.18
2022-12-16T02:55:19.452Z,6.63
2022-12-16T03:00:54.047Z,11.40
2022-12-16T03:14:56.360Z,11.75
2022-12-16T03:17:25.877Z,11.13
2022-12-16T03:20:07.433Z,10.85
2022-12-16T03:22:39.065Z,11.40
2022-12-16T03:25:07.980Z,12.02
2022-12-16T03:27:46.373Z,16.10
2022-12-16T03:30:20.092Z,10.70
2022-12-16T03:32:59.922Z,12.48
2022-12-16T03:35:33.732Z,10.95
2022-12-16T03:38:04.023Z,11.40
2022-12-16T03:40:33.735Z,11.18
2022-12-16T03:43:03.942Z,11.93
2022-12-16T03:45:38.570Z,15.45
2022-12-16T03:48:11.670Z,16.65
2022-12-16T03:50:40.756Z,11.27
2022-12-16T03:53:08.902Z,11.95
2022-12-16T03:55:37.153Z,12.38
2022-12-16T03:58:05.168Z,11.73
2022-12-16T04:00:33.896Z,15.77
2022-12-16T04:03:02.151Z,11.85
2022-12-16T04:05:30.333Z,13.23
2022-12-16T04:08:01.808Z,13.25
2022-12-16T04:10:49.112Z,16.20
2022-12-16T04:13:35.640Z,14.40
2022-12-16T04:16:23.203Z,10.65
2022-12-16T04:19:09.873Z,12.15
2022-12-16T04:21:56.620Z,14.48
2022-12-16T04:24:29.004Z,9.90
2022-12-16T04:27:16.028Z,11.52
2022-12-16T04:30:04.698Z,13.40
2022-12-16T04:32:53.123Z,11.23
2022-12-16T04:35:40.002Z,12.82
2022-12-16T04:38:26.542Z,16.48
2022-12-16T04:41:12.839Z,16.63
2022-12-16T04:43:59.473Z,17.52
2022-12-16T04:46:46.473Z,16.90
2022-12-16T04:49:33.194Z,13.25
2022-12-16T04:52:19.448Z,12.35
2022-12-16T04:55:05.916Z,13.82
2022-12-16T04:57:52.172Z,14.30
2022-12-16T05:00:39.586Z,13.18
2022-12-16T05:03:26.631Z,19.73
2022-12-16T05:06:13.165Z,15.25
2022-12-16T05:08:59.795Z,13.48
2022-12-16T05:11:46.365Z,13.20
2022-12-16T05:14:33.153Z,13.50
2022-12-16T05:17:21.407Z,13.05
2022-12-16T05:20:07.813Z,11.50
2022-12-16T05:22:54.194Z,11.00
2022-12-16T05:25:40.798Z,17.10
2022-12-16T05:28:27.462Z,14.65
2022-12-16T05:31:13.847Z,10.82
2022-12-16T05:34:00.484Z,13.95
2022-12-16T05:36:47.256Z,13.48
2022-12-16T05:39:33.769Z,13.43
2022-12-16T05:42:20.261Z,14.23
2022-12-16T05:45:06.700Z,13.77
2022-12-16T05:47:53.295Z,12.82
2022-12-16T05:50:39.617Z,12.45
2022-12-16T05:53:29.527Z,13.77
2022-12-16T05:56:16.028Z,11.45
2022-12-16T05:59:02.274Z,17.58
2022-12-16T06:01:48.995Z,16.65
2022-12-16T06:04:35.195Z,14.57
2022-12-16T06:07:21.497Z,13.75
2022-12-16T06:10:08.246Z,14.52
2022-12-16T06:12:54.531Z,12.93
2022-12-16T06:15:41.349Z,15.30
2022-12-16T06:18:27.976Z,19.13
2022-12-16T06:21:14.566Z,15.52
2022-12-16T06:24:00.816Z,25.38
2022-12-16T06:26:47.610Z,26.73
2022-12-16T06:29:34.067Z,26.27
2022-12-16T06:32:20.985Z,14.68
2022-12-16T06:35:07.465Z,13.20
2022-12-16T06:37:53.757Z,14.82
2022-12-16T06:40:40.705Z,14.68
2022-12-16T06:43:27.095Z,13.35
2022-12-16T06:46:13.813Z,13.98
2022-12-16T06:49:17.300Z,15.65
2022-12-16T06:52:03.725Z,20.80
2022-12-16T06:54:50.447Z,16.42
2022-12-16T06:57:36.828Z,14.35
2022-12-16T07:00:24.367Z,12.07
2022-12-16T07:05:59.368Z,12.95
2022-12-16T07:08:45.657Z,13.35
2022-12-16T07:11:32.606Z,9.80
2022-12-16T07:14:19.342Z,13.23
2022-12-16T07:17:05.589Z,15.23
2022-12-16T07:19:52.167Z,15.40
2022-12-16T07:22:38.716Z,17.30
2022-12-16T07:25:25.901Z,15.13
2022-12-16T07:28:15.495Z,14.32
2022-12-16T07:31:02.794Z,18.20
2022-12-16T07:33:49.075Z,13.45
2022-12-16T07:36:35.626Z,14.68
2022-12-16T07:39:22.442Z,13.75
2022-12-16T07:42:09.085Z,14.05
2022-12-16T07:44:55.878Z,14.95
2022-12-16T07:47:42.368Z,11.70
2022-12-16T07:50:28.681Z,13.63
2022-12-16T07:53:18.970Z,13.50
2022-12-16T07:56:05.641Z,13.55
2022-12-16T07:58:52.063Z,13.32
2022-12-16T08:01:49.533Z,11.57
2022-12-16T08:04:36.329Z,11.70
2022-12-16T08:07:23.038Z,11.55
2022-12-16T08:10:09.609Z,13.45
2022-12-16T08:12:56.426Z,13.30
2022-12-16T08:15:43.440Z,12.23
2022-12-16T08:18:30.355Z,14.10
2022-12-16T08:21:16.778Z,20.33
2022-12-16T08:24:03.472Z,18.02
2022-12-16T08:26:49.894Z,17.73
2022-12-16T08:29:45.536Z,16.40
2022-12-16T08:32:34.165Z,12.27
2022-12-16T08:35:21.479Z,14.20
2022-12-16T08:38:13.671Z,12.70
2022-12-16T08:41:02.817Z,12.50
2022-12-16T08:43:51.365Z,8.82
2022-12-16T08:46:38.783Z,12.68
2022-12-16T08:49:25.644Z,11.38
2022-12-16T08:52:11.958Z,13.20
2022-12-16T08:54:58.467Z,11.60
2022-12-16T08:57:45.064Z,13.70
2022-12-16T09:15:32.643Z,12.73
2022-12-16T09:18:29.392Z,15.68
2022-12-16T09:21:16.932Z,17.63
2022-12-16T09:24:20.466Z,14.38
2022-12-16T09:27:06.942Z,11.38
2022-12-16T09:29:53.349Z,13.65
2022-12-16T09:32:40.070Z,11.73
2022-12-16T09:35:26.825Z,10.48
2022-12-16T09:38:13.688Z,17.60
2022-12-16T09:41:03.482Z,16.23
2022-12-16T09:44:14.607Z,16.58
2022-12-16T09:47:09.914Z,11.85
2022-12-16T09:50:13.439Z,12.93
2022-12-16T09:53:22.675Z,12.05
2022-12-16T09:56:10.385Z,14.23
2022-12-16T09:59:04.153Z,12.48
2022-12-16T10:01:56.055Z,16.17
2022-12-16T10:04:43.843Z,16.40
2022-12-16T10:07:40.753Z,16.10
2022-12-16T10:10:52.753Z,14.40
2022-12-16T10:14:01.320Z,18.90
2022-12-16T10:17:05.950Z,16.63
2022-12-16T10:20:08.962Z,9.70
2022-12-16T10:23:20.593Z,12.20
2022-12-16T10:26:25.131Z,12.38
2022-12-16T10:29:23.545Z,15.73
2022-12-16T10:32:10.428Z,12.88
2022-12-16T10:34:58.165Z,16.25
2022-12-16T10:37:55.476Z,16.42
2022-12-16T10:40:45.579Z,14.15
2022-12-16T10:44:03.764Z,15.27
2022-12-16T10:46:53.122Z,17.35
2022-12-16T10:49:41.359Z,16.35
2022-12-16T10:52:32.034Z,17.75
2022-12-16T10:55:31.424Z,20.55
2022-12-16T10:58:45.208Z,17.77
2022-12-16T11:01:46.287Z,14.93
2022-12-16T11:04:50.406Z,12.45
2022-12-16T11:07:53.752Z,13.10
2022-12-16T11:10:55.966Z,14.23
2022-12-16T11:13:42.751Z,15.65
2022-12-16T11:16:36.957Z,20.08
2022-12-16T11:19:27.783Z,13.13
2022-12-16T11:22:30.511Z,18.08
2022-12-16T11:25:43.558Z,12.13
2022-12-16T11:28:37.219Z,12.23
2022-12-16T11:31:32.948Z,9.85
2022-12-16T11:34:21.696Z,15.25
2022-12-16T11:37:11.115Z,10.85
2022-12-16T11:39:59.166Z,10.13
2022-12-16T11:42:51.017Z,12.65
2022-12-16T11:45:39.596Z,13.30
2022-12-16T11:48:48.452Z,14.43
2022-12-16T11:51:37.220Z,12.65
2022-12-16T11:54:50.448Z,7.95
2022-12-16T11:57:46.821Z,10.90
2022-12-16T12:00:34.960Z,9.85
2022-12-16T12:03:37.885Z,8.75
2022-12-16T12:06:57.819Z,8.88
2022-12-16T12:09:46.545Z,9.23
2022-12-16T12:12:52.685Z,11.27
2022-12-16T12:15:48.552Z,8.82
2022-12-16T12:18:37.757Z,9.18
2022-12-16T12:21:34.946Z,11.23
2022-12-16T12:24:56.451Z,10.38
2022-12-16T12:28:07.177Z,9.10
2022-12-16T12:31:04.899Z,10.55
2022-12-16T12:34:24.243Z,10.57
2022-12-16T12:37:24.467Z,7.38
2022-12-16T12:40:34.057Z,7.97
2022-12-16T12:43:28.143Z,8.85
2022-12-16T12:46:56.883Z,9.70
2022-12-16T12:50:25.010Z,8.48
2022-12-16T12:53:45.432Z,10.30
2022-12-16T12:56:40.776Z,9.15
2022-12-16T12:59:46.465Z,9.63
2022-12-16T13:05:29.534Z,20.75
2022-12-16T13:08:57.677Z,18.58
2022-12-16T13:11:44.132Z,9.40
2022-12-16T13:14:52.072Z,9.30
2022-12-16T13:17:42.048Z,10.07
2022-12-16T13:20:53.307Z,10.30
2022-12-16T13:23:57.059Z,10.93
2022-12-16T13:26:46.283Z,18.08
2022-12-16T13:29:38.514Z,10.50
2022-12-16T13:32:32.843Z,17.00
2022-12-16T13:35:26.792Z,8.73
2022-12-16T13:38:22.613Z,8.38
2022-12-16T13:41:18.522Z,9.30
2022-12-16T13:44:12.316Z,9.88
2022-12-16T13:47:12.344Z,10.30
2022-12-16T13:50:06.351Z,10.57
2022-12-16T13:52:58.651Z,10.88
2022-12-16T13:55:53.500Z,9.05
2022-12-16T13:58:49.796Z,12.23
2022-12-16T14:01:53.525Z,10.65
2022-12-16T14:04:51.254Z,8.52
2022-12-16T14:07:41.569Z,8.10
2022-12-16T14:10:50.159Z,9.45
2022-12-16T14:13:46.496Z,6.13
2022-12-16T14:17:11.661Z,9.68
2022-12-16T14:20:36.719Z,9.68
2022-12-16T14:26:46.467Z,13.20
2022-12-16T14:29:53.981Z,8.65
2022-12-16T14:32:53.038Z,9.43
2022-12-16T14:35:44.947Z,7.63
2022-12-16T14:38:38.313Z,6.25
2022-12-16T14:41:24.923Z,9.00
2022-12-16T14:44:11.664Z,8.13
2022-12-16T14:46:58.788Z,8.70
2022-12-16T14:49:47.915Z,7.63
2022-12-16T14:52:35.419Z,9.80
2022-12-16T14:55:37.507Z,9.57
2022-12-16T14:58:32.299Z,16.75
2022-12-16T15:01:41.376Z,8.95
2022-12-16T15:04:38.060Z,17.17
2022-12-16T15:07:31.556Z,20.38
2022-12-16T15:22:22.535Z,12.77
2022-12-16T15:25:09.116Z,11.18
2022-12-16T15:27:57.421Z,9.82
2022-12-16T15:30:58.886Z,12.85
2022-12-16T15:34:03.174Z,9.95
2022-12-16T15:36:53.008Z,7.93
2022-12-16T15:39:55.445Z,12.88
2022-12-16T15:42:51.851Z,10.02
2022-12-16T15:45:48.843Z,18.45
2022-12-16T15:48:52.349Z,13.75
2022-12-16T15:51:51.193Z,17.15
2022-12-16T15:54:41.283Z,12.38
2022-12-16T15:57:51.941Z,11.80
2022-12-16T16:00:45.106Z,11.07
2022-12-16T16:03:43.642Z,15.60
2022-12-16T16:06:39.482Z,16.50
2022-12-16T16:09:38.862Z,42.03
2022-12-16T16:12:28.837Z,35.80
2022-12-16T16:15:15.553Z,18.98
2022-12-16T16:18:02.707Z,18.52
2022-12-16T16:20:49.420Z,21.40
2022-12-16T16:23:36.433Z,21.00
2022-12-16T16:26:23.244Z,21.30
2022-12-16T16:29:09.809Z,31.63
2022-12-16T16:32:02.288Z,37.97
2022-12-16T16:34:51.166Z,22.95
2022-12-16T16:37:40.509Z,12.35
2022-12-16T16:40:56.131Z,10.07
2022-12-16T16:43:44.019Z,16.15
2022-12-16T16:46:47.260Z,14.65
2022-12-16T16:49:47.194Z,18.20
2022-12-16T16:55:23.192Z,18.35
2022-12-16T16:58:10.298Z,24.98
2022-12-16T17:00:57.302Z,19.85
2022-12-16T17:03:44.486Z,34.53
2022-12-16T17:06:31.587Z,56.83
2022-12-16T17:09:18.461Z,15.65
2022-12-16T17:12:05.201Z,20.58
2022-12-16T17:14:51.837Z,32.65
2022-12-16T17:17:38.520Z,11.75
2022-12-16T17:20:26.336Z,12.18
2022-12-16T17:23:13.143Z,13.65
2022-12-16T17:26:00.296Z,13.60
2022-12-16T17:28:47.254Z,11.70
2022-12-16T17:31:34.540Z,14.80
2022-12-16T17:34:22.010Z,13.45
2022-12-16T17:39:55.544Z,10.95
2022-12-16T17:42:46.451Z,12.70
2022-12-16T17:45:33.948Z,14.43
2022-12-16T17:51:08.042Z,13.50
2022-12-16T17:54:00.384Z,13.32
2022-12-16T17:56:48.830Z,12.93
2022-12-16T17:59:36.120Z,13.18
2022-12-16T18:02:23.254Z,13.23
2022-12-16T18:05:10.377Z,13.07
2022-12-16T18:07:57.593Z,12.77
2022-12-16T18:10:44.426Z,11.20
2022-12-16T18:13:31.672Z,11.85
2022-12-16T18:16:19.077Z,11.27
2022-12-16T18:19:09.916Z,11.40
2022-12-16T18:21:58.072Z,12.52
2022-12-16T18:25:02.012Z,12.75
2022-12-16T18:27:49.257Z,13.95
2022-12-16T18:30:36.546Z,12.98
2022-12-16T18:33:23.347Z,15.32
2022-12-16T18:36:10.411Z,12.45
2022-12-16T18:38:57.604Z,15.38
2022-12-16T18:41:44.470Z,15.85
2022-12-16T18:44:32.843Z,18.65
2022-12-16T18:47:19.753Z,18.75
2022-12-16T18:50:07.024Z,18.60
2022-12-16T18:52:54.365Z,16.08
2022-12-16T18:55:41.225Z,18.38
2022-12-16T18:58:50.189Z,13.50
2022-12-16T19:01:34.916Z,13.48
2022-12-16T19:04:22.154Z,14.88
2022-12-16T19:07:09.433Z,13.18
2022-12-16T19:09:56.629Z,13.65
2022-12-16T19:12:43.724Z,12.93
2022-12-16T19:15:31.148Z,14.85
2022-12-16T19:18:18.240Z,19.55
2022-12-16T19:21:16.872Z,20.10
2022-12-16T19:24:04.123Z,17.63
2022-12-16T19:26:51.400Z,20.77
2022-12-16T19:29:38.701Z,22.25
2022-12-16T19:32:25.659Z,21.83
2022-12-16T19:35:13.007Z,17.52
2022-12-16T19:40:46.434Z,14.00
2022-12-16T19:43:35.182Z,14.32
2022-12-16T19:46:21.958Z,22.20
2022-12-16T19:49:09.672Z,15.20
2022-12-16T19:51:56.690Z,18.85
2022-12-16T19:54:43.886Z,13.55
2022-12-16T19:57:30.935Z,16.65
2022-12-16T20:00:18.254Z,14.75
2022-12-16T20:03:05.690Z,12.68
2022-12-16T20:08:42.776Z,15.10
2022-12-16T20:11:29.557Z,15.80
2022-12-16T20:14:16.756Z,9.60
2022-12-16T20:19:53.394Z,15.68
2022-12-16T20:22:43.233Z,11.15
2022-12-16T20:25:30.776Z,12.35
2022-12-16T20:31:11.736Z,12.50
2022-12-16T20:37:05.963Z,13.32
2022-12-16T20:39:56.839Z,8.88
2022-12-16T20:42:45.353Z,10.93
2022-12-16T20:45:32.615Z,10.38
2022-12-16T20:51:21.090Z,13.02
2022-12-16T20:54:11.145Z,10.82
2022-12-16T20:56:57.430Z,10.80
2022-12-16T20:59:44.066Z,10.52
2022-12-16T21:05:40.526Z,11.00
2022-12-16T21:08:27.115Z,12.52
2022-12-16T21:11:17.068Z,11.68
2022-12-16T21:20:05.023Z,8.55
2022-12-16T21:22:51.774Z,9.35
2022-12-16T21:25:40.230Z,10.60
2022-12-16T21:28:26.885Z,10.35
2022-12-16T21:31:17.026Z,6.55
2022-12-16T21:34:04.281Z,9.98
2022-12-16T21:36:51.092Z,8.68
2022-12-16T21:39:38.352Z,9.10
2022-12-16T21:42:26.881Z,7.55
2022-12-16T21:45:18.153Z,7.47
2022-12-16T21:48:04.980Z,9.55
2022-12-16T21:50:51.796Z,7.03
2022-12-16T21:53:38.561Z,8.32
2022-12-16T21:56:25.193Z,9.23
2022-12-16T21:59:11.768Z,9.00
2022-12-16T22:01:58.549Z,8.93
2022-12-16T22:04:45.712Z,8.23
2022-12-16T22:07:31.959Z,7.80
2022-12-16T22:10:18.277Z,8.40
2022-12-16T22:13:05.039Z,9.38
2022-12-16T22:15:51.804Z,9.15
2022-12-16T22:18:38.624Z,7.38
2022-12-16T22:21:25.252Z,8.55
2022-12-16T22:24:11.995Z,8.45
2022-12-16T22:26:58.294Z,8.73
2022-12-16T22:29:44.596Z,10.25
2022-12-16T22:32:30.761Z,8.70
2022-12-16T22:35:17.102Z,10.05
2022-12-16T22:36:21.687Z,14.13
2022-12-16T22:38:03.799Z,9.27
2022-12-16T22:40:50.293Z,7.72
2022-12-16T22:43:36.896Z,8.38
2022-12-16T22:46:24.159Z,9.57
2022-12-16T22:49:10.731Z,8.77
2022-12-16T22:52:11.458Z,9.20
2022-12-16T22:54:59.370Z,10.25
2022-12-16T22:57:50.845Z,7.03
2022-12-16T23:00:38.191Z,6.82
2022-12-16T23:03:24.815Z,8.57
2022-12-16T23:06:11.608Z,14.45
2022-12-16T23:08:58.078Z,8.60
2022-12-16T23:11:52.817Z,9.55
2022-12-16T23:14:44.160Z,8.32
2022-12-16T23:17:32.074Z,9.57
2022-12-16T23:20:18.229Z,9.25
2022-12-16T23:23:04.581Z,8.73
2022-12-16T23:25:51.474Z,9.05
2022-12-16T23:28:38.718Z,9.05
2022-12-16T23:31:25.285Z,11.52
2022-12-16T23:32:30.184Z,13.50
2022-12-16T23:34:11.583Z,9.23
2022-12-16T23:36:58.533Z,9.25
2022-12-16T23:39:44.816Z,9.55
2022-12-16T23:42:51.285Z,9.60
2022-12-16T23:45:38.788Z,10.77
2022-12-16T23:48:27.716Z,8.77
2022-12-16T23:51:14.716Z,7.25
2022-12-16T23:54:01.279Z,10.27
2022-12-16T23:56:47.683Z,10.13
2022-12-16T23:59:43.092Z,7.68
